MST,Max TemperatureF,Mean TemperatureF,Min TemperatureF,Max Dew PointF,MeanDew PointF,Min DewpointF,Max Humidity, Mean Humidity, Min Humidity, Max Sea Level PressureIn, Mean Sea Level PressureIn, Min Sea Level PressureIn, Max VisibilityMiles, Mean VisibilityMiles, Min VisibilityMiles, Max Wind SpeedMPH, Mean Wind SpeedMPH, Max Gust SpeedMPH,PrecipitationIn, CloudCover, Events, WindDirDegrees
2012-11-1,62,52,42,43,38,34,76,63,39,30.06,29.96,29.87,10,10,10,15,6,24,0.00,4,,77
2012-11-2,60,46,32,39,34,27,81,65,42,30.18,30.11,30.06,10,10,8,8,2,,0.00,0,,154
2012-11-3,60,48,37,37,33,28,75,60,39,30.25,30.18,30.11,10,10,1,8,4,,0.00,3,,187
2012-11-4,62,48,35,43,36,28,81,65,42,30.42,30.35,30.24,10,10,4,7,1,,0.00,2,,351
2012-11-5,64,50,35,43,36,28,81,67,42,30.43,30.37,30.29,10,9,2,6,1,,0.00,0,,145
2012-11-6,64,50,35,43,37,28,81,67,45,30.30,30.17,30.02,10,8,5,8,2,,0.00,0,,308
2012-11-7,57,46,35,41,34,27,81,62,50,30.03,29.97,29.88,10,10,4,14,5,,0.00,5,,302
2012-11-8,48,42,35,34,29,27,75,63,53,29.87,29.69,29.62,10,10,9,16,7,22,0.00,2,,310
2012-11-9,42,36,28,28,24,19,75,61,42,29.79,29.75,29.67,10,10,10,14,6,16,0.00,4,,302
2012-11-10,42,33,24,23,19,16,80,61,39,30.14,29.95,29.80,10,10,9,14,6,18,0.00,3,,306
2012-11-11,39,27,15,19,16,9,74,60,45,30.41,30.33,30.15,10,10,6,10,5,,0.00,2,,85
2012-11-12,37,30,24,28,21,12,75,62,44,30.43,30.40,30.36,10,10,10,14,9,17,0.00,7,,153
2012-11-13,42,38,35,34,30,28,81,74,65,30.38,30.31,30.23,10,9,3,12,7,,0.01,8,,202
2012-11-14,41,38,35,32,31,30,81,75,65,30.34,30.29,30.24,10,8,3,7,3,,0.00,8,,330
2012-11-15,51,43,35,34,31,28,75,64,44,30.35,30.22,30.07,10,9,5,25,9,32,0.00,3,,134
2012-11-16,55,46,37,37,33,28,76,64,50,30.09,30.03,29.98,10,10,9,12,5,,0.00,5,,121
2012-11-17,57,49,41,43,35,30,76,60,47,29.98,29.84,29.72,10,10,9,23,10,30,0.07,5,,154
2012-11-18,51,42,33,39,29,25,71,57,43,30.06,29.99,29.75,10,10,10,20,9,24,0.01,3,,121
2012-11-19,57,48,39,39,35,28,70,59,44,30.13,30.07,30.01,10,10,10,21,12,28,0.02,6,,150
2012-11-20,59,54,50,39,37,36,62,51,45,30.01,29.91,29.79,10,10,10,21,14,28,0.02,5,,156
2012-11-21,57,45,30,37,31,21,71,52,41,30.26,29.96,29.75,10,10,10,22,13,36,0.00,4,,252
2012-11-22,48,36,23,28,22,16,74,62,37,30.49,30.42,30.28,10,10,5,12,4,,0.00,0,,97
2012-11-23,48,39,30,28,24,19,70,57,43,30.48,30.39,30.29,10,10,10,16,9,,0.00,0,,127
2012-11-24,42,37,32,34,30,23,81,73,65,30.29,30.19,30.07,10,9,3,6,2,,0.19,7,,313
2012-11-25,46,38,30,34,29,21,87,69,46,30.24,30.15,30.06,10,9,3,15,7,,0.10,5,,299
2012-11-26,44,34,24,28,23,18,80,68,49,30.32,30.26,30.21,10,10,5,12,5,,0.00,0,,150
2012-11-27,39,30,21,28,23,16,80,73,61,30.29,30.23,30.18,10,9,3,6,2,,0.00,0,,295
2012-11-28,35,29,23,28,24,18,86,79,74,30.18,30.04,29.93,10,4,0,10,3,,0.00,5,,282
2012-11-29,51,38,26,37,31,21,87,68,50,30.02,29.93,29.77,10,7,0,20,6,24,0.00,3,,161
2012-11-30,57,50,44,43,38,36,76,56,44,29.82,29.72,29.66,10,10,3,28,14,51,0.00,6,,156